Terminal Aerodrome Forecast
Issued by NWS Louisville, KY

Home | Current Version | Previous Version | Text Only | Print | Product List | Glossary On
Versions: 1 2 3 4 5 6 7 8 9 10 11 12 13 14 15 16
954
FTUS43 KLMK 072323
TAFBWG
TAF
KBWG 072323Z 0800/0824 22008KT P6SM BKN100
     FM080600 26005KT P6SM VCSH BKN040
     FM081600 28011G17KT 6SM -RASN BR OVC021=

USA.gov is the U.S. government's official web portal to all federal, state and local government web resources and services.